Řízení letového provozu České republiky
Letiste: LKKU Aktualizace: 27.03.2017 12:11:05  UTC
 METAR LKKU 27.03. 12:00 ...
METAR LKKU 271200Z 05005KT CAVOK 14/M06 Q1026=